sensor_id;sensor_type;location;lat;lon;timestamp;P1;durP1;ratioP1;P2;durP2;ratioP2
22144;SDS011;11238;48.730;11.566;2022-08-19T00:02:24;29.35;;;26.30;;
22144;SDS011;11238;48.730;11.566;2022-08-19T00:04:50;28.75;;;25.65;;
22144;SDS011;11238;48.730;11.566;2022-08-19T00:07:20;27.65;;;24.13;;
22144;SDS011;11238;48.730;11.566;2022-08-19T00:09:46;27.90;;;24.95;;
22144;SDS011;11238;48.730;11.566;2022-08-19T00:12:12;28.45;;;25.40;;
22144;SDS011;11238;48.730;11.566;2022-08-19T00:14:38;27.80;;;23.73;;
22144;SDS011;11238;48.730;11.566;2022-08-19T00:17:06;25.17;;;22.65;;
22144;SDS011;11238;48.730;11.566;2022-08-19T00:19:33;25.17;;;22.40;;
22144;SDS011;11238;48.730;11.566;2022-08-19T00:22:00;26.02;;;23.13;;
22144;SDS011;11238;48.730;11.566;2022-08-19T00:24:28;24.08;;;21.48;;
22144;SDS011;11238;48.730;11.566;2022-08-19T00:26:54;25.27;;;21.35;;
22144;SDS011;11238;48.730;11.566;2022-08-19T00:29:22;24.58;;;21.98;;
22144;SDS011;11238;48.730;11.566;2022-08-19T00:31:49;28.05;;;25.02;;
22144;SDS011;11238;48.730;11.566;2022-08-19T00:34:18;26.15;;;22.08;;
22144;SDS011;11238;48.730;11.566;2022-08-19T00:36:44;25.50;;;22.23;;
22144;SDS011;11238;48.730;11.566;2022-08-19T00:39:11;24.95;;;22.08;;
22144;SDS011;11238;48.730;11.566;2022-08-19T00:41:37;28.25;;;25.15;;
22144;SDS011;11238;48.730;11.566;2022-08-19T00:44:05;25.13;;;22.05;;
22144;SDS011;11238;48.730;11.566;2022-08-19T00:46:35;22.73;;;20.30;;
22144;SDS011;11238;48.730;11.566;2022-08-19T00:49:03;26.73;;;23.98;;
22144;SDS011;11238;48.730;11.566;2022-08-19T00:51:35;26.35;;;23.65;;
22144;SDS011;11238;48.730;11.566;2022-08-19T00:54:02;32.72;;;24.63;;
22144;SDS011;11238;48.730;11.566;2022-08-19T00:56:28;28.48;;;23.48;;
22144;SDS011;11238;48.730;11.566;2022-08-19T00:58:56;31.83;;;28.15;;
22144;SDS011;11238;48.730;11.566;2022-08-19T01:01:23;32.90;;;27.25;;
22144;SDS011;11238;48.730;11.566;2022-08-19T01:03:49;33.10;;;29.02;;
22144;SDS011;11238;48.730;11.566;2022-08-19T01:06:15;31.10;;;27.80;;
22144;SDS011;11238;48.730;11.566;2022-08-19T01:08:41;34.08;;;29.65;;
22144;SDS011;11238;48.730;11.566;2022-08-19T01:11:07;32.70;;;28.25;;
22144;SDS011;11238;48.730;11.566;2022-08-19T01:13:35;32.58;;;28.80;;
22144;SDS011;11238;48.730;11.566;2022-08-19T01:16:03;31.38;;;27.27;;
22144;SDS011;11238;48.730;11.566;2022-08-19T01:18:31;26.13;;;23.38;;
22144;SDS011;11238;48.730;11.566;2022-08-19T01:21:02;30.35;;;27.00;;
22144;SDS011;11238;48.730;11.566;2022-08-19T01:23:36;30.60;;;27.25;;
22144;SDS011;11238;48.730;11.566;2022-08-19T01:26:12;24.85;;;22.25;;
22144;SDS011;11238;48.730;11.566;2022-08-19T01:28:41;27.30;;;23.80;;
22144;SDS011;11238;48.730;11.566;2022-08-19T01:31:14;31.55;;;28.02;;
22144;SDS011;11238;48.730;11.566;2022-08-19T01:33:43;29.50;;;26.33;;
22144;SDS011;11238;48.730;11.566;2022-08-19T01:36:12;30.88;;;27.60;;
22144;SDS011;11238;48.730;11.566;2022-08-19T01:38:41;32.28;;;28.17;;
22144;SDS011;11238;48.730;11.566;2022-08-19T01:41:09;30.52;;;27.23;;
22144;SDS011;11238;48.730;11.566;2022-08-19T01:43:37;36.42;;;28.70;;
22144;SDS011;11238;48.730;11.566;2022-08-19T01:46:03;30.17;;;26.92;;
22144;SDS011;11238;48.730;11.566;2022-08-19T01:48:36;36.88;;;27.50;;
22144;SDS011;11238;48.730;11.566;2022-08-19T01:51:05;32.25;;;26.92;;
22144;SDS011;11238;48.730;11.566;2022-08-19T01:53:31;34.80;;;29.42;;
22144;SDS011;11238;48.730;11.566;2022-08-19T01:55:58;34.72;;;30.23;;
22144;SDS011;11238;48.730;11.566;2022-08-19T01:58:26;32.63;;;27.27;;
22144;SDS011;11238;48.730;11.566;2022-08-19T02:00:56;29.95;;;25.60;;
22144;SDS011;11238;48.730;11.566;2022-08-19T02:03:23;29.77;;;26.17;;
22144;SDS011;11238;48.730;11.566;2022-08-19T02:05:54;31.85;;;26.25;;
22144;SDS011;11238;48.730;11.566;2022-08-19T02:08:26;30.30;;;26.13;;
22144;SDS011;11238;48.730;11.566;2022-08-19T02:10:52;26.88;;;22.45;;
22144;SDS011;11238;48.730;11.566;2022-08-19T02:13:18;28.73;;;24.73;;
22144;SDS011;11238;48.730;11.566;2022-08-19T02:15:44;29.58;;;26.08;;
22144;SDS011;11238;48.730;11.566;2022-08-19T02:18:10;33.22;;;28.92;;
22144;SDS011;11238;48.730;11.566;2022-08-19T02:20:37;30.00;;;25.40;;
22144;SDS011;11238;48.730;11.566;2022-08-19T02:23:04;33.30;;;26.92;;
22144;SDS011;11238;48.730;11.566;2022-08-19T02:25:30;29.92;;;26.70;;
22144;SDS011;11238;48.730;11.566;2022-08-19T02:27:56;33.28;;;27.80;;
22144;SDS011;11238;48.730;11.566;2022-08-19T02:30:21;30.23;;;26.08;;
22144;SDS011;11238;48.730;11.566;2022-08-19T02:32:47;32.90;;;26.75;;
22144;SDS011;11238;48.730;11.566;2022-08-19T02:35:14;29.90;;;24.45;;
22144;SDS011;11238;48.730;11.566;2022-08-19T02:37:41;28.67;;;24.20;;
22144;SDS011;11238;48.730;11.566;2022-08-19T02:40:26;29.10;;;22.98;;
22144;SDS011;11238;48.730;11.566;2022-08-19T02:42:53;29.00;;;22.73;;
22144;SDS011;11238;48.730;11.566;2022-08-19T02:45:19;31.58;;;23.48;;
22144;SDS011;11238;48.730;11.566;2022-08-19T02:47:45;25.33;;;20.65;;
22144;SDS011;11238;48.730;11.566;2022-08-19T02:50:10;21.98;;;19.63;;
22144;SDS011;11238;48.730;11.566;2022-08-19T02:52:37;22.88;;;19.15;;
22144;SDS011;11238;48.730;11.566;2022-08-19T02:55:04;24.30;;;21.02;;
22144;SDS011;11238;48.730;11.566;2022-08-19T02:57:31;29.83;;;25.17;;
22144;SDS011;11238;48.730;11.566;2022-08-19T02:59:57;32.08;;;25.80;;
22144;SDS011;11238;48.730;11.566;2022-08-19T03:02:22;33.63;;;26.30;;
22144;SDS011;11238;48.730;11.566;2022-08-19T03:04:48;27.77;;;24.75;;
22144;SDS011;11238;48.730;11.566;2022-08-19T03:07:15;29.90;;;25.75;;
22144;SDS011;11238;48.730;11.566;2022-08-19T03:09:43;32.67;;;26.38;;
22144;SDS011;11238;48.730;11.566;2022-08-19T03:12:10;33.28;;;26.40;;
22144;SDS011;11238;48.730;11.566;2022-08-19T03:14:36;34.70;;;27.52;;
22144;SDS011;11238;48.730;11.566;2022-08-19T03:17:03;32.97;;;25.33;;
22144;SDS011;11238;48.730;11.566;2022-08-19T03:19:30;32.83;;;26.65;;
22144;SDS011;11238;48.730;11.566;2022-08-19T03:21:56;34.53;;;25.52;;
22144;SDS011;11238;48.730;11.566;2022-08-19T03:24:22;28.08;;;24.73;;
22144;SDS011;11238;48.730;11.566;2022-08-19T03:26:50;32.00;;;25.63;;
22144;SDS011;11238;48.730;11.566;2022-08-19T03:29:18;34.20;;;27.63;;
22144;SDS011;11238;48.730;11.566;2022-08-19T03:31:45;36.60;;;28.98;;
22144;SDS011;11238;48.730;11.566;2022-08-19T03:34:11;33.88;;;23.48;;
22144;SDS011;11238;48.730;11.566;2022-08-19T03:36:39;34.10;;;27.10;;
22144;SDS011;11238;48.730;11.566;2022-08-19T03:39:06;30.63;;;26.00;;
22144;SDS011;11238;48.730;11.566;2022-08-19T03:41:37;25.85;;;21.83;;
22144;SDS011;11238;48.730;11.566;2022-08-19T03:44:05;34.40;;;26.45;;
22144;SDS011;11238;48.730;11.566;2022-08-19T03:46:34;32.75;;;27.75;;
22144;SDS011;11238;48.730;11.566;2022-08-19T03:49:00;36.05;;;26.30;;
22144;SDS011;11238;48.730;11.566;2022-08-19T03:51:37;36.53;;;28.67;;
22144;SDS011;11238;48.730;11.566;2022-08-19T03:54:06;31.15;;;26.30;;
22144;SDS011;11238;48.730;11.566;2022-08-19T03:56:36;33.53;;;26.67;;
22144;SDS011;11238;48.730;11.566;2022-08-19T03:59:04;34.60;;;27.73;;
22144;SDS011;11238;48.730;11.566;2022-08-19T04:01:32;34.22;;;26.58;;
22144;SDS011;11238;48.730;11.566;2022-08-19T04:03:58;35.08;;;27.95;;
22144;SDS011;11238;48.730;11.566;2022-08-19T04:06:26;34.67;;;25.48;;
22144;SDS011;11238;48.730;11.566;2022-08-19T04:08:57;27.13;;;22.33;;
22144;SDS011;11238;48.730;11.566;2022-08-19T04:11:25;33.03;;;27.42;;
22144;SDS011;11238;48.730;11.566;2022-08-19T04:13:54;31.17;;;25.67;;
22144;SDS011;11238;48.730;11.566;2022-08-19T04:16:21;32.70;;;26.75;;
22144;SDS011;11238;48.730;11.566;2022-08-19T04:18:48;33.97;;;27.40;;
22144;SDS011;11238;48.730;11.566;2022-08-19T04:21:19;38.75;;;29.33;;
22144;SDS011;11238;48.730;11.566;2022-08-19T04:23:46;37.35;;;28.83;;
22144;SDS011;11238;48.730;11.566;2022-08-19T04:26:13;36.15;;;27.88;;
22144;SDS011;11238;48.730;11.566;2022-08-19T04:28:44;36.30;;;28.13;;
22144;SDS011;11238;48.730;11.566;2022-08-19T04:31:12;31.85;;;25.65;;
22144;SDS011;11238;48.730;11.566;2022-08-19T04:33:40;36.58;;;29.20;;
22144;SDS011;11238;48.730;11.566;2022-08-19T04:36:06;35.72;;;28.25;;
22144;SDS011;11238;48.730;11.566;2022-08-19T04:38:32;36.17;;;27.55;;
22144;SDS011;11238;48.730;11.566;2022-08-19T04:40:59;35.50;;;27.48;;
22144;SDS011;11238;48.730;11.566;2022-08-19T04:43:44;33.90;;;24.90;;
22144;SDS011;11238;48.730;11.566;2022-08-19T04:46:14;39.00;;;27.77;;
22144;SDS011;11238;48.730;11.566;2022-08-19T04:48:40;36.75;;;29.10;;
22144;SDS011;11238;48.730;11.566;2022-08-19T04:51:08;33.55;;;27.27;;
22144;SDS011;11238;48.730;11.566;2022-08-19T04:53:36;38.42;;;30.33;;
22144;SDS011;11238;48.730;11.566;2022-08-19T04:56:07;37.65;;;27.30;;
22144;SDS011;11238;48.730;11.566;2022-08-19T04:58:36;39.10;;;29.40;;
22144;SDS011;11238;48.730;11.566;2022-08-19T05:01:02;37.80;;;30.15;;
22144;SDS011;11238;48.730;11.566;2022-08-19T05:03:30;36.00;;;25.35;;
22144;SDS011;11238;48.730;11.566;2022-08-19T05:06:03;33.88;;;26.23;;
22144;SDS011;11238;48.730;11.566;2022-08-19T05:08:33;38.92;;;30.05;;
22144;SDS011;11238;48.730;11.566;2022-08-19T05:11:01;37.47;;;28.33;;
22144;SDS011;11238;48.730;11.566;2022-08-19T05:13:32;39.67;;;29.90;;
22144;SDS011;11238;48.730;11.566;2022-08-19T05:15:58;35.08;;;27.00;;
22144;SDS011;11238;48.730;11.566;2022-08-19T05:18:25;38.22;;;30.27;;
22144;SDS011;11238;48.730;11.566;2022-08-19T05:21:10;38.17;;;30.00;;
22144;SDS011;11238;48.730;11.566;2022-08-19T05:23:56;36.25;;;29.95;;
22144;SDS011;11238;48.730;11.566;2022-08-19T05:26:22;41.53;;;30.05;;
22144;SDS011;11238;48.730;11.566;2022-08-19T05:28:51;41.03;;;31.27;;
22144;SDS011;11238;48.730;11.566;2022-08-19T05:31:18;35.33;;;27.73;;
22144;SDS011;11238;48.730;11.566;2022-08-19T05:33:44;41.63;;;29.27;;
22144;SDS011;11238;48.730;11.566;2022-08-19T05:36:10;36.83;;;29.40;;
22144;SDS011;11238;48.730;11.566;2022-08-19T05:38:36;38.75;;;29.55;;
22144;SDS011;11238;48.730;11.566;2022-08-19T05:41:08;38.03;;;29.48;;
22144;SDS011;11238;48.730;11.566;2022-08-19T05:43:35;25.77;;;20.27;;
22144;SDS011;11238;48.730;11.566;2022-08-19T05:46:03;39.90;;;29.40;;
22144;SDS011;11238;48.730;11.566;2022-08-19T05:48:30;22.80;;;17.38;;
22144;SDS011;11238;48.730;11.566;2022-08-19T05:50:57;24.80;;;19.92;;
22144;SDS011;11238;48.730;11.566;2022-08-19T05:53:28;23.42;;;17.90;;
22144;SDS011;11238;48.730;11.566;2022-08-19T05:55:54;20.05;;;15.98;;
22144;SDS011;11238;48.730;11.566;2022-08-19T05:58:20;30.23;;;26.02;;
22144;SDS011;11238;48.730;11.566;2022-08-19T06:00:45;32.40;;;25.23;;
22144;SDS011;11238;48.730;11.566;2022-08-19T06:03:11;36.92;;;28.65;;
22144;SDS011;11238;48.730;11.566;2022-08-19T06:05:37;38.28;;;29.98;;
22144;SDS011;11238;48.730;11.566;2022-08-19T06:08:02;24.70;;;20.80;;
22144;SDS011;11238;48.730;11.566;2022-08-19T06:10:29;31.73;;;25.60;;
22144;SDS011;11238;48.730;11.566;2022-08-19T06:12:55;34.70;;;26.45;;
22144;SDS011;11238;48.730;11.566;2022-08-19T06:15:21;25.08;;;19.58;;
22144;SDS011;11238;48.730;11.566;2022-08-19T06:17:51;26.20;;;20.67;;
22144;SDS011;11238;48.730;11.566;2022-08-19T06:20:20;19.58;;;16.90;;
22144;SDS011;11238;48.730;11.566;2022-08-19T06:22:46;24.90;;;21.50;;
22144;SDS011;11238;48.730;11.566;2022-08-19T06:25:15;35.13;;;26.75;;
22144;SDS011;11238;48.730;11.566;2022-08-19T06:27:42;21.52;;;18.40;;
22144;SDS011;11238;48.730;11.566;2022-08-19T06:30:08;26.65;;;21.08;;
22144;SDS011;11238;48.730;11.566;2022-08-19T06:32:36;27.38;;;21.35;;
22144;SDS011;11238;48.730;11.566;2022-08-19T06:35:03;21.98;;;17.73;;
22144;SDS011;11238;48.730;11.566;2022-08-19T06:37:30;21.00;;;17.80;;
22144;SDS011;11238;48.730;11.566;2022-08-19T06:39:55;26.17;;;22.60;;
22144;SDS011;11238;48.730;11.566;2022-08-19T06:42:21;21.58;;;17.98;;
22144;SDS011;11238;48.730;11.566;2022-08-19T06:44:47;21.75;;;18.10;;
22144;SDS011;11238;48.730;11.566;2022-08-19T06:47:19;23.92;;;20.10;;
22144;SDS011;11238;48.730;11.566;2022-08-19T06:49:46;25.77;;;21.13;;
22144;SDS011;11238;48.730;11.566;2022-08-19T06:52:12;21.17;;;18.52;;
22144;SDS011;11238;48.730;11.566;2022-08-19T06:54:40;25.40;;;20.27;;
22144;SDS011;11238;48.730;11.566;2022-08-19T06:57:07;38.75;;;30.00;;
22144;SDS011;11238;48.730;11.566;2022-08-19T06:59:39;35.90;;;28.17;;
22144;SDS011;11238;48.730;11.566;2022-08-19T07:02:05;35.90;;;27.63;;
22144;SDS011;11238;48.730;11.566;2022-08-19T07:04:31;29.05;;;23.90;;
22144;SDS011;11238;48.730;11.566;2022-08-19T07:07:00;25.60;;;20.10;;
22144;SDS011;11238;48.730;11.566;2022-08-19T07:09:31;26.80;;;20.90;;
22144;SDS011;11238;48.730;11.566;2022-08-19T07:11:57;20.48;;;18.25;;
22144;SDS011;11238;48.730;11.566;2022-08-19T07:14:24;24.08;;;17.75;;
22144;SDS011;11238;48.730;11.566;2022-08-19T07:16:52;24.30;;;17.23;;
22144;SDS011;11238;48.730;11.566;2022-08-19T07:19:21;35.08;;;28.08;;
22144;SDS011;11238;48.730;11.566;2022-08-19T07:21:48;24.00;;;19.85;;
22144;SDS011;11238;48.730;11.566;2022-08-19T07:24:17;34.50;;;28.65;;
22144;SDS011;11238;48.730;11.566;2022-08-19T07:26:45;34.45;;;26.60;;
22144;SDS011;11238;48.730;11.566;2022-08-19T07:29:12;35.53;;;28.92;;
22144;SDS011;11238;48.730;11.566;2022-08-19T07:31:38;23.23;;;20.65;;
22144;SDS011;11238;48.730;11.566;2022-08-19T07:34:05;20.85;;;18.58;;
22144;SDS011;11238;48.730;11.566;2022-08-19T07:36:33;22.25;;;19.27;;
22144;SDS011;11238;48.730;11.566;2022-08-19T07:39:03;23.80;;;20.50;;
22144;SDS011;11238;48.730;11.566;2022-08-19T07:41:34;25.17;;;20.88;;
22144;SDS011;11238;48.730;11.566;2022-08-19T07:44:02;22.88;;;19.17;;
22144;SDS011;11238;48.730;11.566;2022-08-19T07:46:32;23.48;;;20.45;;
22144;SDS011;11238;48.730;11.566;2022-08-19T07:49:00;21.73;;;19.48;;
22144;SDS011;11238;48.730;11.566;2022-08-19T07:51:27;32.58;;;27.45;;
22144;SDS011;11238;48.730;11.566;2022-08-19T07:53:54;30.95;;;25.30;;
22144;SDS011;11238;48.730;11.566;2022-08-19T07:56:20;37.72;;;31.17;;
22144;SDS011;11238;48.730;11.566;2022-08-19T07:58:48;25.15;;;21.75;;
22144;SDS011;11238;48.730;11.566;2022-08-19T08:01:21;23.00;;;20.50;;
22144;SDS011;11238;48.730;11.566;2022-08-19T08:03:50;23.77;;;19.73;;
22144;SDS011;11238;48.730;11.566;2022-08-19T08:06:35;23.10;;;20.50;;
22144;SDS011;11238;48.730;11.566;2022-08-19T08:09:22;23.25;;;20.23;;
22144;SDS011;11238;48.730;11.566;2022-08-19T08:11:52;24.67;;;20.67;;
22144;SDS011;11238;48.730;11.566;2022-08-19T08:14:28;27.15;;;23.15;;
22144;SDS011;11238;48.730;11.566;2022-08-19T08:16:56;26.67;;;23.63;;
22144;SDS011;11238;48.730;11.566;2022-08-19T08:19:23;29.25;;;24.55;;
22144;SDS011;11238;48.730;11.566;2022-08-19T08:21:50;37.65;;;30.08;;
22144;SDS011;11238;48.730;11.566;2022-08-19T08:24:17;27.83;;;24.08;;
22144;SDS011;11238;48.730;11.566;2022-08-19T08:26:44;37.22;;;31.02;;
22144;SDS011;11238;48.730;11.566;2022-08-19T08:29:10;41.72;;;33.38;;
22144;SDS011;11238;48.730;11.566;2022-08-19T08:31:39;37.58;;;32.08;;
22144;SDS011;11238;48.730;11.566;2022-08-19T08:34:05;40.40;;;33.10;;
22144;SDS011;11238;48.730;11.566;2022-08-19T08:36:32;45.42;;;36.45;;
22144;SDS011;11238;48.730;11.566;2022-08-19T08:39:00;31.42;;;26.23;;
22144;SDS011;11238;48.730;11.566;2022-08-19T08:43:56;27.35;;;23.80;;
22144;SDS011;11238;48.730;11.566;2022-08-19T08:46:39;28.55;;;23.80;;
22144;SDS011;11238;48.730;11.566;2022-08-19T08:49:17;37.92;;;29.10;;
22144;SDS011;11238;48.730;11.566;2022-08-19T08:52:02;37.10;;;30.60;;
22144;SDS011;11238;48.730;11.566;2022-08-19T08:54:47;46.47;;;36.33;;
22144;SDS011;11238;48.730;11.566;2022-08-19T08:57:18;25.55;;;22.48;;
22144;SDS011;11238;48.730;11.566;2022-08-19T09:00:00;37.90;;;32.45;;
22144;SDS011;11238;48.730;11.566;2022-08-19T09:02:30;30.20;;;26.55;;
22144;SDS011;11238;48.730;11.566;2022-08-19T09:04:56;32.15;;;28.73;;
22144;SDS011;11238;48.730;11.566;2022-08-19T09:07:26;31.15;;;25.63;;
22144;SDS011;11238;48.730;11.566;2022-08-19T09:10:22;34.50;;;29.48;;
22144;SDS011;11238;48.730;11.566;2022-08-19T09:13:02;22.20;;;18.90;;
22144;SDS011;11238;48.730;11.566;2022-08-19T09:15:54;23.33;;;20.27;;
22144;SDS011;11238;48.730;11.566;2022-08-19T09:18:35;24.13;;;21.07;;
22144;SDS011;11238;48.730;11.566;2022-08-19T09:21:15;20.92;;;18.73;;
22144;SDS011;11238;48.730;11.566;2022-08-19T09:23:41;22.00;;;18.13;;
22144;SDS011;11238;48.730;11.566;2022-08-19T09:26:12;24.60;;;20.92;;
22144;SDS011;11238;48.730;11.566;2022-08-19T09:28:40;23.27;;;20.35;;
22144;SDS011;11238;48.730;11.566;2022-08-19T09:31:10;19.65;;;17.55;;
22144;SDS011;11238;48.730;11.566;2022-08-19T09:33:40;24.42;;;20.90;;
22144;SDS011;11238;48.730;11.566;2022-08-19T09:36:10;23.95;;;20.88;;
22144;SDS011;11238;48.730;11.566;2022-08-19T09:38:38;24.77;;;21.00;;
22144;SDS011;11238;48.730;11.566;2022-08-19T09:41:08;25.48;;;22.30;;
22144;SDS011;11238;48.730;11.566;2022-08-19T09:43:39;21.65;;;19.35;;
22144;SDS011;11238;48.730;11.566;2022-08-19T09:46:08;24.45;;;21.85;;
22144;SDS011;11238;48.730;11.566;2022-08-19T09:48:40;22.73;;;19.25;;
22144;SDS011;11238;48.730;11.566;2022-08-19T09:51:08;21.88;;;19.58;;
22144;SDS011;11238;48.730;11.566;2022-08-19T09:53:37;21.77;;;19.48;;
22144;SDS011;11238;48.730;11.566;2022-08-19T09:56:04;20.10;;;16.80;;
22144;SDS011;11238;48.730;11.566;2022-08-19T09:58:31;20.45;;;17.30;;
22144;SDS011;11238;48.730;11.566;2022-08-19T10:00:58;17.80;;;15.90;;
22144;SDS011;11238;48.730;11.566;2022-08-19T10:03:26;17.90;;;14.88;;
22144;SDS011;11238;48.730;11.566;2022-08-19T10:05:53;16.83;;;13.90;;
22144;SDS011;11238;48.730;11.566;2022-08-19T10:08:21;18.67;;;16.73;;
22144;SDS011;11238;48.730;11.566;2022-08-19T10:10:52;16.25;;;13.80;;
22144;SDS011;11238;48.730;11.566;2022-08-19T10:13:21;20.88;;;18.63;;
22144;SDS011;11238;48.730;11.566;2022-08-19T10:15:51;24.42;;;20.88;;
22144;SDS011;11238;48.730;11.566;2022-08-19T10:18:19;19.08;;;17.08;;
22144;SDS011;11238;48.730;11.566;2022-08-19T10:20:46;18.02;;;16.00;;
22144;SDS011;11238;48.730;11.566;2022-08-19T10:23:12;16.58;;;14.85;;
22144;SDS011;11238;48.730;11.566;2022-08-19T10:25:40;17.83;;;15.38;;
22144;SDS011;11238;48.730;11.566;2022-08-19T10:28:07;17.73;;;15.63;;
22144;SDS011;11238;48.730;11.566;2022-08-19T10:30:34;19.27;;;16.45;;
22144;SDS011;11238;48.730;11.566;2022-08-19T10:33:00;23.35;;;20.13;;
22144;SDS011;11238;48.730;11.566;2022-08-19T10:35:26;26.38;;;19.75;;
22144;SDS011;11238;48.730;11.566;2022-08-19T10:37:54;22.90;;;18.02;;
22144;SDS011;11238;48.730;11.566;2022-08-19T10:40:25;24.73;;;19.77;;
22144;SDS011;11238;48.730;11.566;2022-08-19T10:42:53;25.10;;;21.13;;
22144;SDS011;11238;48.730;11.566;2022-08-19T10:45:22;22.85;;;18.00;;
22144;SDS011;11238;48.730;11.566;2022-08-19T10:47:54;23.08;;;19.48;;
22144;SDS011;11238;48.730;11.566;2022-08-19T10:50:20;28.20;;;24.60;;
22144;SDS011;11238;48.730;11.566;2022-08-19T10:53:07;21.13;;;18.90;;
22144;SDS011;11238;48.730;11.566;2022-08-19T10:55:36;27.02;;;21.10;;
22144;SDS011;11238;48.730;11.566;2022-08-19T10:58:21;18.30;;;13.73;;
22144;SDS011;11238;48.730;11.566;2022-08-19T11:00:53;21.75;;;18.27;;
22144;SDS011;11238;48.730;11.566;2022-08-19T11:03:20;18.38;;;15.27;;
22144;SDS011;11238;48.730;11.566;2022-08-19T11:05:56;27.77;;;18.35;;
22144;SDS011;11238;48.730;11.566;2022-08-19T11:08:23;27.42;;;19.63;;
22144;SDS011;11238;48.730;11.566;2022-08-19T11:10:50;21.85;;;18.45;;
22144;SDS011;11238;48.730;11.566;2022-08-19T11:13:20;22.70;;;15.68;;
22144;SDS011;11238;48.730;11.566;2022-08-19T11:15:47;29.45;;;23.83;;
22144;SDS011;11238;48.730;11.566;2022-08-19T11:18:12;25.08;;;19.13;;
22144;SDS011;11238;48.730;11.566;2022-08-19T11:20:38;20.25;;;15.88;;
22144;SDS011;11238;48.730;11.566;2022-08-19T11:23:04;16.92;;;11.40;;
22144;SDS011;11238;48.730;11.566;2022-08-19T11:25:30;13.88;;;9.73;;
22144;SDS011;11238;48.730;11.566;2022-08-19T11:27:56;16.17;;;9.60;;
22144;SDS011;11238;48.730;11.566;2022-08-19T11:30:22;11.98;;;9.43;;
22144;SDS011;11238;48.730;11.566;2022-08-19T11:32:48;10.00;;;8.82;;
22144;SDS011;11238;48.730;11.566;2022-08-19T11:35:14;15.77;;;8.63;;
22144;SDS011;11238;48.730;11.566;2022-08-19T11:37:41;13.98;;;8.75;;
22144;SDS011;11238;48.730;11.566;2022-08-19T11:40:07;11.68;;;9.90;;
22144;SDS011;11238;48.730;11.566;2022-08-19T11:42:34;15.00;;;10.13;;
22144;SDS011;11238;48.730;11.566;2022-08-19T11:45:18;15.98;;;11.05;;
22144;SDS011;11238;48.730;11.566;2022-08-19T11:47:43;16.35;;;11.48;;
22144;SDS011;11238;48.730;11.566;2022-08-19T11:50:09;12.98;;;11.15;;
22144;SDS011;11238;48.730;11.566;2022-08-19T11:52:35;12.88;;;11.02;;
22144;SDS011;11238;48.730;11.566;2022-08-19T11:55:01;13.80;;;12.30;;
22144;SDS011;11238;48.730;11.566;2022-08-19T11:57:27;18.55;;;16.58;;
22144;SDS011;11238;48.730;11.566;2022-08-19T11:59:53;17.23;;;13.95;;
22144;SDS011;11238;48.730;11.566;2022-08-19T12:02:19;18.38;;;15.88;;
22144;SDS011;11238;48.730;11.566;2022-08-19T12:04:45;21.92;;;17.92;;
22144;SDS011;11238;48.730;11.566;2022-08-19T12:07:11;17.60;;;15.48;;
22144;SDS011;11238;48.730;11.566;2022-08-19T12:09:37;21.10;;;18.08;;
22144;SDS011;11238;48.730;11.566;2022-08-19T12:12:04;17.45;;;15.32;;
22144;SDS011;11238;48.730;11.566;2022-08-19T12:14:30;17.70;;;13.98;;
22144;SDS011;11238;48.730;11.566;2022-08-19T12:16:57;16.17;;;14.00;;
22144;SDS011;11238;48.730;11.566;2022-08-19T12:19:23;20.55;;;18.20;;
22144;SDS011;11238;48.730;11.566;2022-08-19T12:21:50;19.83;;;17.67;;
22144;SDS011;11238;48.730;11.566;2022-08-19T12:24:16;23.52;;;18.42;;
22144;SDS011;11238;48.730;11.566;2022-08-19T12:26:48;23.95;;;18.80;;
22144;SDS011;11238;48.730;11.566;2022-08-19T12:29:14;22.67;;;16.27;;
22144;SDS011;11238;48.730;11.566;2022-08-19T12:31:40;21.67;;;16.73;;
22144;SDS011;11238;48.730;11.566;2022-08-19T12:34:06;19.48;;;15.57;;
22144;SDS011;11238;48.730;11.566;2022-08-19T12:36:32;20.13;;;12.38;;
22144;SDS011;11238;48.730;11.566;2022-08-19T12:38:59;15.32;;;11.85;;
22144;SDS011;11238;48.730;11.566;2022-08-19T12:41:25;14.20;;;12.15;;
22144;SDS011;11238;48.730;11.566;2022-08-19T12:43:51;16.27;;;12.85;;
22144;SDS011;11238;48.730;11.566;2022-08-19T12:46:18;17.48;;;12.20;;
22144;SDS011;11238;48.730;11.566;2022-08-19T12:48:45;17.05;;;12.40;;
22144;SDS011;11238;48.730;11.566;2022-08-19T12:51:15;13.45;;;10.82;;
22144;SDS011;11238;48.730;11.566;2022-08-19T12:53:43;11.60;;;10.40;;
22144;SDS011;11238;48.730;11.566;2022-08-19T12:56:10;10.18;;;9.02;;
22144;SDS011;11238;48.730;11.566;2022-08-19T12:58:38;11.32;;;8.82;;
22144;SDS011;11238;48.730;11.566;2022-08-19T13:01:08;9.52;;;8.40;;
22144;SDS011;11238;48.730;11.566;2022-08-19T13:03:36;19.48;;;9.60;;
22144;SDS011;11238;48.730;11.566;2022-08-19T13:06:02;45.83;;;9.02;;
22144;SDS011;11238;48.730;11.566;2022-08-19T13:08:28;23.00;;;7.47;;
22144;SDS011;11238;48.730;11.566;2022-08-19T13:10:54;10.35;;;6.53;;
22144;SDS011;11238;48.730;11.566;2022-08-19T13:13:20;12.02;;;6.78;;
22144;SDS011;11238;48.730;11.566;2022-08-19T13:15:46;7.88;;;5.13;;
22144;SDS011;11238;48.730;11.566;2022-08-19T13:18:12;8.10;;;4.85;;
22144;SDS011;11238;48.730;11.566;2022-08-19T13:20:39;11.32;;;6.00;;
22144;SDS011;11238;48.730;11.566;2022-08-19T13:23:06;12.90;;;7.38;;
22144;SDS011;11238;48.730;11.566;2022-08-19T13:25:33;8.95;;;6.95;;
22144;SDS011;11238;48.730;11.566;2022-08-19T13:27:59;11.55;;;6.38;;
22144;SDS011;11238;48.730;11.566;2022-08-19T13:30:25;9.77;;;6.22;;
22144;SDS011;11238;48.730;11.566;2022-08-19T13:33:09;14.32;;;6.75;;
22144;SDS011;11238;48.730;11.566;2022-08-19T13:35:35;19.33;;;6.55;;
22144;SDS011;11238;48.730;11.566;2022-08-19T13:38:06;9.73;;;6.43;;
22144;SDS011;11238;48.730;11.566;2022-08-19T13:40:32;7.05;;;5.90;;
22144;SDS011;11238;48.730;11.566;2022-08-19T13:42:59;8.40;;;5.38;;
22144;SDS011;11238;48.730;11.566;2022-08-19T13:45:27;15.63;;;5.65;;
22144;SDS011;11238;48.730;11.566;2022-08-19T13:47:55;14.57;;;4.43;;
22144;SDS011;11238;48.730;11.566;2022-08-19T13:50:24;7.63;;;5.20;;
22144;SDS011;11238;48.730;11.566;2022-08-19T13:52:54;7.90;;;6.30;;
22144;SDS011;11238;48.730;11.566;2022-08-19T13:55:20;9.05;;;6.38;;
22144;SDS011;11238;48.730;11.566;2022-08-19T13:57:53;8.50;;;6.57;;
22144;SDS011;11238;48.730;11.566;2022-08-19T14:00:21;11.75;;;7.35;;
22144;SDS011;11238;48.730;11.566;2022-08-19T14:02:51;10.75;;;9.35;;
22144;SDS011;11238;48.730;11.566;2022-08-19T14:05:17;9.18;;;7.03;;
22144;SDS011;11238;48.730;11.566;2022-08-19T14:07:44;7.82;;;7.03;;
22144;SDS011;11238;48.730;11.566;2022-08-19T14:10:11;11.50;;;9.90;;
22144;SDS011;11238;48.730;11.566;2022-08-19T14:12:37;12.55;;;10.88;;
22144;SDS011;11238;48.730;11.566;2022-08-19T14:15:05;7.90;;;7.05;;
22144;SDS011;11238;48.730;11.566;2022-08-19T14:17:32;11.88;;;9.75;;
22144;SDS011;11238;48.730;11.566;2022-08-19T14:20:00;11.55;;;10.35;;
22144;SDS011;11238;48.730;11.566;2022-08-19T14:22:30;13.57;;;10.73;;